sensor_id;sensor_type;location;lat;lon;timestamp;P1;durP1;ratioP1;P2;durP2;ratioP2
29246;SDS011;16272;48.188;9.964;2024-01-30T00:01:41;10.73;;;4.07;;
29246;SDS011;16272;48.188;9.964;2024-01-30T00:04:06;11.40;;;4.00;;
29246;SDS011;16272;48.188;9.964;2024-01-30T00:06:31;11.37;;;4.40;;
29246;SDS011;16272;48.188;9.964;2024-01-30T00:08:57;10.53;;;4.10;;
29246;SDS011;16272;48.188;9.964;2024-01-30T00:11:22;12.43;;;4.20;;
29246;SDS011;16272;48.188;9.964;2024-01-30T00:13:50;13.13;;;4.38;;
29246;SDS011;16272;48.188;9.964;2024-01-30T00:16:22;11.03;;;4.07;;
29246;SDS011;16272;48.188;9.964;2024-01-30T00:18:51;11.27;;;4.22;;
29246;SDS011;16272;48.188;9.964;2024-01-30T00:21:17;11.45;;;3.88;;
29246;SDS011;16272;48.188;9.964;2024-01-30T00:23:42;9.83;;;4.23;;
29246;SDS011;16272;48.188;9.964;2024-01-30T00:26:08;11.80;;;4.60;;
29246;SDS011;16272;48.188;9.964;2024-01-30T00:28:33;9.77;;;3.73;;
29246;SDS011;16272;48.188;9.964;2024-01-30T00:30:59;11.73;;;4.20;;
29246;SDS011;16272;48.188;9.964;2024-01-30T00:33:24;11.93;;;4.57;;
29246;SDS011;16272;48.188;9.964;2024-01-30T00:35:49;10.77;;;4.20;;
29246;SDS011;16272;48.188;9.964;2024-01-30T00:38:15;10.43;;;3.30;;
29246;SDS011;16272;48.188;9.964;2024-01-30T00:40:40;9.03;;;3.10;;
29246;SDS011;16272;48.188;9.964;2024-01-30T00:43:06;12.83;;;4.03;;
29246;SDS011;16272;48.188;9.964;2024-01-30T00:45:31;10.73;;;4.03;;
29246;SDS011;16272;48.188;9.964;2024-01-30T00:47:56;9.33;;;3.53;;
29246;SDS011;16272;48.188;9.964;2024-01-30T00:50:22;10.32;;;3.58;;
29246;SDS011;16272;48.188;9.964;2024-01-30T00:52:47;9.60;;;2.87;;
29246;SDS011;16272;48.188;9.964;2024-01-30T00:55:12;10.53;;;3.63;;
29246;SDS011;16272;48.188;9.964;2024-01-30T00:57:39;10.50;;;3.67;;
29246;SDS011;16272;48.188;9.964;2024-01-30T01:00:04;10.57;;;3.80;;
29246;SDS011;16272;48.188;9.964;2024-01-30T01:02:31;10.13;;;3.90;;
29246;SDS011;16272;48.188;9.964;2024-01-30T01:04:56;9.10;;;3.40;;
29246;SDS011;16272;48.188;9.964;2024-01-30T01:07:22;11.70;;;3.67;;
29246;SDS011;16272;48.188;9.964;2024-01-30T01:09:47;10.43;;;4.00;;
29246;SDS011;16272;48.188;9.964;2024-01-30T01:12:12;8.53;;;3.60;;
29246;SDS011;16272;48.188;9.964;2024-01-30T01:14:38;10.40;;;3.35;;
29246;SDS011;16272;48.188;9.964;2024-01-30T01:17:03;9.97;;;3.80;;
29246;SDS011;16272;48.188;9.964;2024-01-30T01:19:29;9.50;;;3.37;;
29246;SDS011;16272;48.188;9.964;2024-01-30T01:21:54;10.43;;;3.80;;
29246;SDS011;16272;48.188;9.964;2024-01-30T01:24:19;9.50;;;3.47;;
29246;SDS011;16272;48.188;9.964;2024-01-30T01:26:45;10.57;;;4.20;;
29246;SDS011;16272;48.188;9.964;2024-01-30T01:29:10;10.70;;;4.27;;
29246;SDS011;16272;48.188;9.964;2024-01-30T01:31:37;10.13;;;3.95;;
29246;SDS011;16272;48.188;9.964;2024-01-30T01:34:09;14.55;;;4.80;;
29246;SDS011;16272;48.188;9.964;2024-01-30T01:36:35;11.68;;;4.38;;
29246;SDS011;16272;48.188;9.964;2024-01-30T01:39:00;10.23;;;2.90;;
29246;SDS011;16272;48.188;9.964;2024-01-30T01:41:29;10.33;;;3.63;;
29246;SDS011;16272;48.188;9.964;2024-01-30T01:43:56;10.13;;;4.22;;
29246;SDS011;16272;48.188;9.964;2024-01-30T01:46:21;11.53;;;4.57;;
29246;SDS011;16272;48.188;9.964;2024-01-30T01:48:47;8.40;;;2.90;;
29246;SDS011;16272;48.188;9.964;2024-01-30T01:51:13;8.82;;;3.28;;
29246;SDS011;16272;48.188;9.964;2024-01-30T01:53:39;9.13;;;3.33;;
29246;SDS011;16272;48.188;9.964;2024-01-30T01:56:05;9.23;;;2.97;;
29246;SDS011;16272;48.188;9.964;2024-01-30T01:58:31;9.13;;;3.50;;
29246;SDS011;16272;48.188;9.964;2024-01-30T02:00:56;7.70;;;2.97;;
29246;SDS011;16272;48.188;9.964;2024-01-30T02:03:23;9.45;;;3.67;;
29246;SDS011;16272;48.188;9.964;2024-01-30T02:05:50;9.37;;;3.33;;
29246;SDS011;16272;48.188;9.964;2024-01-30T02:08:16;9.85;;;3.55;;
29246;SDS011;16272;48.188;9.964;2024-01-30T02:10:41;8.55;;;3.05;;
29246;SDS011;16272;48.188;9.964;2024-01-30T02:13:06;8.90;;;3.47;;
29246;SDS011;16272;48.188;9.964;2024-01-30T02:15:32;8.67;;;3.37;;
29246;SDS011;16272;48.188;9.964;2024-01-30T02:17:57;10.83;;;3.87;;
29246;SDS011;16272;48.188;9.964;2024-01-30T02:20:23;10.60;;;3.70;;
29246;SDS011;16272;48.188;9.964;2024-01-30T02:22:49;11.52;;;3.50;;
29246;SDS011;16272;48.188;9.964;2024-01-30T02:25:19;8.50;;;3.20;;
29246;SDS011;16272;48.188;9.964;2024-01-30T02:27:44;9.73;;;3.43;;
29246;SDS011;16272;48.188;9.964;2024-01-30T02:30:10;8.67;;;2.97;;
29246;SDS011;16272;48.188;9.964;2024-01-30T02:32:36;11.13;;;4.30;;
29246;SDS011;16272;48.188;9.964;2024-01-30T02:35:01;9.20;;;2.63;;
29246;SDS011;16272;48.188;9.964;2024-01-30T02:37:26;10.23;;;3.20;;
29246;SDS011;16272;48.188;9.964;2024-01-30T02:39:52;7.13;;;2.50;;
29246;SDS011;16272;48.188;9.964;2024-01-30T02:42:17;8.10;;;2.73;;
29246;SDS011;16272;48.188;9.964;2024-01-30T02:44:42;9.60;;;3.30;;
29246;SDS011;16272;48.188;9.964;2024-01-30T02:47:08;8.70;;;3.23;;
29246;SDS011;16272;48.188;9.964;2024-01-30T02:49:33;8.33;;;3.20;;
29246;SDS011;16272;48.188;9.964;2024-01-30T02:51:58;10.23;;;3.70;;
29246;SDS011;16272;48.188;9.964;2024-01-30T02:54:24;10.43;;;3.50;;
29246;SDS011;16272;48.188;9.964;2024-01-30T02:56:49;9.40;;;3.70;;
29246;SDS011;16272;48.188;9.964;2024-01-30T02:59:14;11.00;;;3.83;;
29246;SDS011;16272;48.188;9.964;2024-01-30T03:01:43;10.43;;;3.60;;
29246;SDS011;16272;48.188;9.964;2024-01-30T03:04:09;11.93;;;4.03;;
29246;SDS011;16272;48.188;9.964;2024-01-30T03:06:34;8.53;;;3.40;;
29246;SDS011;16272;48.188;9.964;2024-01-30T03:09:00;11.80;;;3.67;;
29246;SDS011;16272;48.188;9.964;2024-01-30T03:11:25;8.47;;;3.13;;
29246;SDS011;16272;48.188;9.964;2024-01-30T03:13:51;10.50;;;3.40;;
29246;SDS011;16272;48.188;9.964;2024-01-30T03:16:16;10.80;;;3.17;;
29246;SDS011;16272;48.188;9.964;2024-01-30T03:18:42;7.77;;;2.80;;
29246;SDS011;16272;48.188;9.964;2024-01-30T03:21:07;6.93;;;2.27;;
29246;SDS011;16272;48.188;9.964;2024-01-30T03:23:32;8.10;;;2.83;;
29246;SDS011;16272;48.188;9.964;2024-01-30T03:25:58;9.80;;;2.30;;
29246;SDS011;16272;48.188;9.964;2024-01-30T03:28:23;9.10;;;2.57;;
29246;SDS011;16272;48.188;9.964;2024-01-30T03:30:48;8.63;;;2.90;;
29246;SDS011;16272;48.188;9.964;2024-01-30T03:33:13;9.27;;;2.97;;
29246;SDS011;16272;48.188;9.964;2024-01-30T03:35:39;10.83;;;3.67;;
29246;SDS011;16272;48.188;9.964;2024-01-30T03:38:04;11.60;;;3.60;;
29246;SDS011;16272;48.188;9.964;2024-01-30T03:40:29;8.00;;;2.77;;
29246;SDS011;16272;48.188;9.964;2024-01-30T03:42:54;9.47;;;3.33;;
29246;SDS011;16272;48.188;9.964;2024-01-30T03:45:20;8.87;;;3.60;;
29246;SDS011;16272;48.188;9.964;2024-01-30T03:47:45;11.88;;;3.70;;
29246;SDS011;16272;48.188;9.964;2024-01-30T03:50:10;8.10;;;2.30;;
29246;SDS011;16272;48.188;9.964;2024-01-30T03:52:36;9.50;;;2.70;;
29246;SDS011;16272;48.188;9.964;2024-01-30T03:55:01;9.47;;;3.33;;
29246;SDS011;16272;48.188;9.964;2024-01-30T03:57:26;9.97;;;3.97;;
29246;SDS011;16272;48.188;9.964;2024-01-30T03:59:52;11.70;;;3.43;;
29246;SDS011;16272;48.188;9.964;2024-01-30T04:02:17;9.60;;;3.30;;
29246;SDS011;16272;48.188;9.964;2024-01-30T04:04:43;9.75;;;3.50;;
29246;SDS011;16272;48.188;9.964;2024-01-30T04:07:08;9.57;;;3.70;;
29246;SDS011;16272;48.188;9.964;2024-01-30T04:09:33;8.13;;;3.57;;
29246;SDS011;16272;48.188;9.964;2024-01-30T04:11:58;9.33;;;3.50;;
29246;SDS011;16272;48.188;9.964;2024-01-30T04:14:24;8.87;;;3.37;;
29246;SDS011;16272;48.188;9.964;2024-01-30T04:16:49;10.67;;;3.27;;
29246;SDS011;16272;48.188;9.964;2024-01-30T04:19:14;9.27;;;3.07;;
29246;SDS011;16272;48.188;9.964;2024-01-30T04:21:39;10.07;;;3.07;;
29246;SDS011;16272;48.188;9.964;2024-01-30T04:24:05;9.43;;;2.70;;
29246;SDS011;16272;48.188;9.964;2024-01-30T04:26:31;9.13;;;3.27;;
29246;SDS011;16272;48.188;9.964;2024-01-30T04:28:56;10.77;;;3.87;;
29246;SDS011;16272;48.188;9.964;2024-01-30T04:31:21;10.03;;;3.10;;
29246;SDS011;16272;48.188;9.964;2024-01-30T04:33:47;8.83;;;3.10;;
29246;SDS011;16272;48.188;9.964;2024-01-30T04:36:12;9.25;;;3.20;;
29246;SDS011;16272;48.188;9.964;2024-01-30T04:38:38;9.03;;;3.47;;
29246;SDS011;16272;48.188;9.964;2024-01-30T04:41:04;8.87;;;2.93;;
29246;SDS011;16272;48.188;9.964;2024-01-30T04:43:30;8.10;;;2.83;;
29246;SDS011;16272;48.188;9.964;2024-01-30T04:45:55;10.98;;;3.53;;
29246;SDS011;16272;48.188;9.964;2024-01-30T04:48:21;8.90;;;3.10;;
29246;SDS011;16272;48.188;9.964;2024-01-30T04:50:46;8.70;;;2.90;;
29246;SDS011;16272;48.188;9.964;2024-01-30T04:53:11;9.33;;;3.20;;
29246;SDS011;16272;48.188;9.964;2024-01-30T04:55:37;8.43;;;2.70;;
29246;SDS011;16272;48.188;9.964;2024-01-30T04:58:02;9.23;;;3.50;;
29246;SDS011;16272;48.188;9.964;2024-01-30T05:00:27;8.87;;;3.10;;
29246;SDS011;16272;48.188;9.964;2024-01-30T05:02:55;9.68;;;3.17;;
29246;SDS011;16272;48.188;9.964;2024-01-30T05:05:21;11.17;;;2.77;;
29246;SDS011;16272;48.188;9.964;2024-01-30T05:07:46;7.82;;;2.60;;
29246;SDS011;16272;48.188;9.964;2024-01-30T05:10:12;9.47;;;3.20;;
29246;SDS011;16272;48.188;9.964;2024-01-30T05:12:38;8.77;;;3.17;;
29246;SDS011;16272;48.188;9.964;2024-01-30T05:15:04;8.90;;;3.10;;
29246;SDS011;16272;48.188;9.964;2024-01-30T05:17:29;9.97;;;3.47;;
29246;SDS011;16272;48.188;9.964;2024-01-30T05:19:55;10.20;;;2.83;;
29246;SDS011;16272;48.188;9.964;2024-01-30T05:22:20;10.30;;;3.50;;
29246;SDS011;16272;48.188;9.964;2024-01-30T05:24:45;8.83;;;3.10;;
29246;SDS011;16272;48.188;9.964;2024-01-30T05:27:11;8.90;;;2.80;;
29246;SDS011;16272;48.188;9.964;2024-01-30T05:29:38;10.88;;;2.70;;
29246;SDS011;16272;48.188;9.964;2024-01-30T05:32:04;9.27;;;2.83;;
29246;SDS011;16272;48.188;9.964;2024-01-30T05:34:30;9.70;;;3.40;;
29246;SDS011;16272;48.188;9.964;2024-01-30T05:36:56;8.97;;;3.10;;
29246;SDS011;16272;48.188;9.964;2024-01-30T05:39:21;8.03;;;3.10;;
29246;SDS011;16272;48.188;9.964;2024-01-30T05:41:46;9.37;;;3.13;;
29246;SDS011;16272;48.188;9.964;2024-01-30T05:44:11;9.97;;;2.60;;
29246;SDS011;16272;48.188;9.964;2024-01-30T05:46:37;8.77;;;2.70;;
29246;SDS011;16272;48.188;9.964;2024-01-30T05:49:02;10.33;;;2.97;;
29246;SDS011;16272;48.188;9.964;2024-01-30T05:51:27;7.93;;;3.30;;
29246;SDS011;16272;48.188;9.964;2024-01-30T05:53:53;8.67;;;2.80;;
29246;SDS011;16272;48.188;9.964;2024-01-30T05:56:19;9.10;;;2.70;;
29246;SDS011;16272;48.188;9.964;2024-01-30T05:58:44;9.53;;;3.03;;
29246;SDS011;16272;48.188;9.964;2024-01-30T06:01:09;8.80;;;3.10;;
29246;SDS011;16272;48.188;9.964;2024-01-30T06:03:35;7.43;;;2.42;;
29246;SDS011;16272;48.188;9.964;2024-01-30T06:06:00;7.97;;;2.77;;
29246;SDS011;16272;48.188;9.964;2024-01-30T06:08:26;7.80;;;2.70;;
29246;SDS011;16272;48.188;9.964;2024-01-30T06:10:51;10.30;;;3.03;;
29246;SDS011;16272;48.188;9.964;2024-01-30T06:13:17;8.77;;;3.13;;
29246;SDS011;16272;48.188;9.964;2024-01-30T06:15:42;9.37;;;3.00;;
29246;SDS011;16272;48.188;9.964;2024-01-30T06:18:08;9.00;;;2.93;;
29246;SDS011;16272;48.188;9.964;2024-01-30T06:20:33;8.75;;;3.10;;
29246;SDS011;16272;48.188;9.964;2024-01-30T06:22:59;9.47;;;2.83;;
29246;SDS011;16272;48.188;9.964;2024-01-30T06:25:24;6.73;;;2.67;;
29246;SDS011;16272;48.188;9.964;2024-01-30T06:27:49;8.47;;;3.00;;
29246;SDS011;16272;48.188;9.964;2024-01-30T06:30:14;9.23;;;3.57;;
29246;SDS011;16272;48.188;9.964;2024-01-30T06:32:40;10.20;;;3.57;;
29246;SDS011;16272;48.188;9.964;2024-01-30T06:35:06;8.93;;;3.55;;
29246;SDS011;16272;48.188;9.964;2024-01-30T06:37:31;9.07;;;3.30;;
29246;SDS011;16272;48.188;9.964;2024-01-30T06:39:57;8.57;;;3.20;;
29246;SDS011;16272;48.188;9.964;2024-01-30T06:42:22;9.27;;;3.00;;
29246;SDS011;16272;48.188;9.964;2024-01-30T06:44:47;9.70;;;2.83;;
29246;SDS011;16272;48.188;9.964;2024-01-30T06:47:13;9.23;;;3.37;;
29246;SDS011;16272;48.188;9.964;2024-01-30T06:49:38;10.77;;;3.80;;
29246;SDS011;16272;48.188;9.964;2024-01-30T06:52:06;9.10;;;3.20;;
29246;SDS011;16272;48.188;9.964;2024-01-30T06:54:31;10.82;;;2.83;;
29246;SDS011;16272;48.188;9.964;2024-01-30T06:56:57;8.77;;;2.93;;
29246;SDS011;16272;48.188;9.964;2024-01-30T06:59:23;14.20;;;3.15;;
29246;SDS011;16272;48.188;9.964;2024-01-30T07:01:48;9.17;;;3.43;;
29246;SDS011;16272;48.188;9.964;2024-01-30T07:04:13;11.70;;;3.73;;
29246;SDS011;16272;48.188;9.964;2024-01-30T07:06:39;10.53;;;3.53;;
29246;SDS011;16272;48.188;9.964;2024-01-30T07:09:04;9.30;;;2.97;;
29246;SDS011;16272;48.188;9.964;2024-01-30T07:11:30;11.15;;;3.78;;
29246;SDS011;16272;48.188;9.964;2024-01-30T07:13:56;10.73;;;3.80;;
29246;SDS011;16272;48.188;9.964;2024-01-30T07:16:21;11.00;;;4.00;;
29246;SDS011;16272;48.188;9.964;2024-01-30T07:18:47;12.00;;;3.88;;
29246;SDS011;16272;48.188;9.964;2024-01-30T07:21:12;10.40;;;3.70;;
29246;SDS011;16272;48.188;9.964;2024-01-30T07:23:38;11.65;;;4.00;;
29246;SDS011;16272;48.188;9.964;2024-01-30T07:26:04;8.50;;;3.53;;
29246;SDS011;16272;48.188;9.964;2024-01-30T07:28:30;11.35;;;4.13;;
29246;SDS011;16272;48.188;9.964;2024-01-30T07:30:55;11.00;;;3.90;;
29246;SDS011;16272;48.188;9.964;2024-01-30T07:33:20;11.70;;;3.63;;
29246;SDS011;16272;48.188;9.964;2024-01-30T07:35:46;11.73;;;4.57;;
29246;SDS011;16272;48.188;9.964;2024-01-30T07:38:11;13.02;;;4.78;;
29246;SDS011;16272;48.188;9.964;2024-01-30T07:40:37;10.10;;;4.00;;
29246;SDS011;16272;48.188;9.964;2024-01-30T07:43:02;13.23;;;4.90;;
29246;SDS011;16272;48.188;9.964;2024-01-30T07:45:28;11.68;;;4.35;;
29246;SDS011;16272;48.188;9.964;2024-01-30T07:47:57;11.27;;;4.70;;
29246;SDS011;16272;48.188;9.964;2024-01-30T07:50:23;12.10;;;4.45;;
29246;SDS011;16272;48.188;9.964;2024-01-30T07:52:48;13.40;;;4.60;;
29246;SDS011;16272;48.188;9.964;2024-01-30T07:55:16;10.52;;;3.65;;
29246;SDS011;16272;48.188;9.964;2024-01-30T07:57:41;12.33;;;4.30;;
29246;SDS011;16272;48.188;9.964;2024-01-30T08:00:08;10.68;;;3.88;;
29246;SDS011;16272;48.188;9.964;2024-01-30T08:02:33;11.82;;;3.63;;
29246;SDS011;16272;48.188;9.964;2024-01-30T08:04:59;10.13;;;3.70;;
29246;SDS011;16272;48.188;9.964;2024-01-30T08:07:24;11.13;;;4.17;;
29246;SDS011;16272;48.188;9.964;2024-01-30T08:09:49;11.80;;;4.10;;
29246;SDS011;16272;48.188;9.964;2024-01-30T08:12:15;10.97;;;4.40;;
29246;SDS011;16272;48.188;9.964;2024-01-30T08:14:40;11.27;;;4.20;;
29246;SDS011;16272;48.188;9.964;2024-01-30T08:17:06;10.98;;;3.85;;
29246;SDS011;16272;48.188;9.964;2024-01-30T08:19:32;11.30;;;4.60;;
29246;SDS011;16272;48.188;9.964;2024-01-30T08:21:57;11.97;;;4.67;;
29246;SDS011;16272;48.188;9.964;2024-01-30T08:24:23;11.57;;;4.43;;
29246;SDS011;16272;48.188;9.964;2024-01-30T08:26:48;10.43;;;4.07;;
29246;SDS011;16272;48.188;9.964;2024-01-30T08:29:13;11.10;;;3.93;;
29246;SDS011;16272;48.188;9.964;2024-01-30T08:31:39;9.67;;;3.57;;
29246;SDS011;16272;48.188;9.964;2024-01-30T08:34:04;10.47;;;3.70;;
29246;SDS011;16272;48.188;9.964;2024-01-30T08:36:29;8.70;;;3.50;;
29246;SDS011;16272;48.188;9.964;2024-01-30T08:38:54;8.60;;;3.47;;
29246;SDS011;16272;48.188;9.964;2024-01-30T08:41:20;8.63;;;3.50;;
29246;SDS011;16272;48.188;9.964;2024-01-30T08:43:45;9.77;;;3.70;;
29246;SDS011;16272;48.188;9.964;2024-01-30T08:46:11;8.63;;;3.57;;
29246;SDS011;16272;48.188;9.964;2024-01-30T08:48:36;9.15;;;3.97;;
29246;SDS011;16272;48.188;9.964;2024-01-30T08:51:02;9.60;;;3.77;;
29246;SDS011;16272;48.188;9.964;2024-01-30T08:53:27;11.60;;;4.10;;
29246;SDS011;16272;48.188;9.964;2024-01-30T08:55:52;11.77;;;4.63;;
29246;SDS011;16272;48.188;9.964;2024-01-30T08:58:17;11.07;;;4.63;;
29246;SDS011;16272;48.188;9.964;2024-01-30T09:00:44;10.65;;;4.03;;
29246;SDS011;16272;48.188;9.964;2024-01-30T09:03:09;12.10;;;4.63;;
29246;SDS011;16272;48.188;9.964;2024-01-30T09:05:34;10.80;;;4.37;;
29246;SDS011;16272;48.188;9.964;2024-01-30T09:08:00;12.97;;;4.73;;
29246;SDS011;16272;48.188;9.964;2024-01-30T09:10:25;10.03;;;4.00;;
29246;SDS011;16272;48.188;9.964;2024-01-30T09:12:50;9.97;;;4.10;;
29246;SDS011;16272;48.188;9.964;2024-01-30T09:15:16;9.93;;;4.30;;
29246;SDS011;16272;48.188;9.964;2024-01-30T09:17:41;12.17;;;4.80;;
29246;SDS011;16272;48.188;9.964;2024-01-30T09:20:07;10.50;;;4.33;;
29246;SDS011;16272;48.188;9.964;2024-01-30T09:22:34;11.90;;;4.87;;
29246;SDS011;16272;48.188;9.964;2024-01-30T09:24:59;14.07;;;5.37;;
29246;SDS011;16272;48.188;9.964;2024-01-30T09:27:24;13.30;;;5.00;;
29246;SDS011;16272;48.188;9.964;2024-01-30T09:29:49;12.07;;;4.90;;
29246;SDS011;16272;48.188;9.964;2024-01-30T09:32:15;11.57;;;4.87;;
29246;SDS011;16272;48.188;9.964;2024-01-30T09:34:40;11.67;;;5.17;;
29246;SDS011;16272;48.188;9.964;2024-01-30T09:37:07;12.53;;;5.60;;
29246;SDS011;16272;48.188;9.964;2024-01-30T09:39:32;14.68;;;5.53;;
29246;SDS011;16272;48.188;9.964;2024-01-30T09:42:02;11.40;;;4.87;;
29246;SDS011;16272;48.188;9.964;2024-01-30T09:44:34;13.93;;;5.57;;
29246;SDS011;16272;48.188;9.964;2024-01-30T09:47:01;14.43;;;6.07;;
29246;SDS011;16272;48.188;9.964;2024-01-30T09:49:29;14.25;;;6.03;;
29246;SDS011;16272;48.188;9.964;2024-01-30T09:51:56;13.50;;;5.70;;
29246;SDS011;16272;48.188;9.964;2024-01-30T09:54:22;13.77;;;5.80;;
29246;SDS011;16272;48.188;9.964;2024-01-30T09:56:48;12.33;;;5.10;;
29246;SDS011;16272;48.188;9.964;2024-01-30T09:59:13;12.88;;;5.78;;
29246;SDS011;16272;48.188;9.964;2024-01-30T10:01:39;12.87;;;5.33;;
29246;SDS011;16272;48.188;9.964;2024-01-30T10:04:05;10.57;;;4.88;;
29246;SDS011;16272;48.188;9.964;2024-01-30T10:06:30;14.83;;;6.47;;
29246;SDS011;16272;48.188;9.964;2024-01-30T10:08:56;10.63;;;4.63;;
29246;SDS011;16272;48.188;9.964;2024-01-30T10:11:21;11.37;;;5.47;;
29246;SDS011;16272;48.188;9.964;2024-01-30T10:13:47;11.18;;;5.03;;
29246;SDS011;16272;48.188;9.964;2024-01-30T10:16:13;10.60;;;5.00;;
29246;SDS011;16272;48.188;9.964;2024-01-30T10:18:40;12.50;;;5.38;;
29246;SDS011;16272;48.188;9.964;2024-01-30T10:21:06;12.03;;;5.40;;
29246;SDS011;16272;48.188;9.964;2024-01-30T10:23:33;12.88;;;5.65;;
29246;SDS011;16272;48.188;9.964;2024-01-30T10:25:58;15.17;;;6.80;;
29246;SDS011;16272;48.188;9.964;2024-01-30T10:28:26;14.93;;;6.83;;
29246;SDS011;16272;48.188;9.964;2024-01-30T10:30:58;14.10;;;6.10;;
29246;SDS011;16272;48.188;9.964;2024-01-30T10:33:28;18.00;;;7.13;;
29246;SDS011;16272;48.188;9.964;2024-01-30T10:36:03;13.10;;;5.80;;
29246;SDS011;16272;48.188;9.964;2024-01-30T10:38:31;13.77;;;6.43;;
29246;SDS011;16272;48.188;9.964;2024-01-30T10:40:57;14.93;;;5.82;;
29246;SDS011;16272;48.188;9.964;2024-01-30T10:43:24;16.02;;;6.35;;
29246;SDS011;16272;48.188;9.964;2024-01-30T10:46:20;14.13;;;6.43;;
29246;SDS011;16272;48.188;9.964;2024-01-30T10:48:50;14.03;;;6.57;;
29246;SDS011;16272;48.188;9.964;2024-01-30T10:51:22;14.07;;;6.50;;
29246;SDS011;16272;48.188;9.964;2024-01-30T10:53:48;15.45;;;6.70;;
29246;SDS011;16272;48.188;9.964;2024-01-30T10:56:14;14.70;;;6.03;;
29246;SDS011;16272;48.188;9.964;2024-01-30T10:58:41;13.75;;;6.53;;
29246;SDS011;16272;48.188;9.964;2024-01-30T11:01:06;14.20;;;6.97;;
29246;SDS011;16272;48.188;9.964;2024-01-30T11:03:33;15.53;;;6.50;;
29246;SDS011;16272;48.188;9.964;2024-01-30T11:06:01;13.63;;;6.07;;
29246;SDS011;16272;48.188;9.964;2024-01-30T11:08:27;13.07;;;6.47;;
29246;SDS011;16272;48.188;9.964;2024-01-30T11:10:56;15.23;;;5.97;;
29246;SDS011;16272;48.188;9.964;2024-01-30T11:13:26;13.65;;;6.25;;
29246;SDS011;16272;48.188;9.964;2024-01-30T11:15:55;13.17;;;6.07;;
29246;SDS011;16272;48.188;9.964;2024-01-30T11:18:23;13.48;;;6.05;;
29246;SDS011;16272;48.188;9.964;2024-01-30T11:20:50;12.40;;;5.90;;
29246;SDS011;16272;48.188;9.964;2024-01-30T11:23:15;12.20;;;5.68;;
29246;SDS011;16272;48.188;9.964;2024-01-30T11:25:43;11.67;;;5.67;;
29246;SDS011;16272;48.188;9.964;2024-01-30T11:28:12;12.48;;;5.60;;
29246;SDS011;16272;48.188;9.964;2024-01-30T11:30:41;14.13;;;5.97;;
29246;SDS011;16272;48.188;9.964;2024-01-30T11:33:08;13.70;;;5.85;;
29246;SDS011;16272;48.188;9.964;2024-01-30T11:35:36;12.85;;;5.88;;
29246;SDS011;16272;48.188;9.964;2024-01-30T11:38:04;12.48;;;5.72;;
29246;SDS011;16272;48.188;9.964;2024-01-30T11:40:30;12.52;;;5.53;;
29246;SDS011;16272;48.188;9.964;2024-01-30T11:42:58;11.47;;;5.50;;
29246;SDS011;16272;48.188;9.964;2024-01-30T11:45:24;12.77;;;5.43;;
29246;SDS011;16272;48.188;9.964;2024-01-30T11:47:49;13.47;;;5.77;;
29246;SDS011;16272;48.188;9.964;2024-01-30T11:50:15;11.52;;;5.10;;
29246;SDS011;16272;48.188;9.964;2024-01-30T11:52:40;11.70;;;5.27;;
29246;SDS011;16272;48.188;9.964;2024-01-30T11:55:07;11.77;;;5.05;;
29246;SDS011;16272;48.188;9.964;2024-01-30T11:57:33;11.52;;;4.80;;
29246;SDS011;16272;48.188;9.964;2024-01-30T12:00:00;12.80;;;4.90;;
29246;SDS011;16272;48.188;9.964;2024-01-30T12:02:25;10.35;;;4.80;;
29246;SDS011;16272;48.188;9.964;2024-01-30T12:04:51;11.23;;;5.10;;
29246;SDS011;16272;48.188;9.964;2024-01-30T12:07:16;11.40;;;4.87;;
29246;SDS011;16272;48.188;9.964;2024-01-30T12:09:42;11.47;;;5.23;;
29246;SDS011;16272;48.188;9.964;2024-01-30T12:12:07;11.32;;;4.85;;
29246;SDS011;16272;48.188;9.964;2024-01-30T12:14:37;11.38;;;4.80;;
29246;SDS011;16272;48.188;9.964;2024-01-30T12:17:04;12.40;;;5.27;;
29246;SDS011;16272;48.188;9.964;2024-01-30T12:19:29;12.35;;;4.97;;
29246;SDS011;16272;48.188;9.964;2024-01-30T12:21:58;10.70;;;4.77;;
29246;SDS011;16272;48.188;9.964;2024-01-30T12:24:26;10.37;;;4.50;;
29246;SDS011;16272;48.188;9.964;2024-01-30T12:26:56;9.80;;;4.20;;
29246;SDS011;16272;48.188;9.964;2024-01-30T12:29:22;12.55;;;4.80;;
29246;SDS011;16272;48.188;9.964;2024-01-30T12:31:47;11.50;;;5.07;;
29246;SDS011;16272;48.188;9.964;2024-01-30T12:34:15;14.47;;;5.20;;
29246;SDS011;16272;48.188;9.964;2024-01-30T12:36:42;14.10;;;5.65;;
29246;SDS011;16272;48.188;9.964;2024-01-30T12:39:10;12.50;;;5.30;;
29246;SDS011;16272;48.188;9.964;2024-01-30T12:41:37;12.05;;;4.90;;
29246;SDS011;16272;48.188;9.964;2024-01-30T12:44:02;11.27;;;5.00;;
29246;SDS011;16272;48.188;9.964;2024-01-30T12:46:28;11.57;;;5.17;;
29246;SDS011;16272;48.188;9.964;2024-01-30T12:48:54;11.90;;;5.75;;
29246;SDS011;16272;48.188;9.964;2024-01-30T12:51:19;14.47;;;6.00;;
29246;SDS011;16272;48.188;9.964;2024-01-30T12:53:44;12.87;;;5.70;;
29246;SDS011;16272;48.188;9.964;2024-01-30T12:56:11;14.13;;;5.80;;
29246;SDS011;16272;48.188;9.964;2024-01-30T12:58:36;13.77;;;5.33;;
29246;SDS011;16272;48.188;9.964;2024-01-30T13:01:02;12.57;;;5.40;;
29246;SDS011;16272;48.188;9.964;2024-01-30T13:03:28;13.75;;;5.18;;
29246;SDS011;16272;48.188;9.964;2024-01-30T13:05:53;12.13;;;5.20;;
29246;SDS011;16272;48.188;9.964;2024-01-30T13:08:18;11.37;;;5.20;;
29246;SDS011;16272;48.188;9.964;2024-01-30T13:10:44;11.90;;;4.93;;
29246;SDS011;16272;48.188;9.964;2024-01-30T13:13:09;11.10;;;5.23;;
29246;SDS011;16272;48.188;9.964;2024-01-30T13:15:34;12.77;;;5.17;;
29246;SDS011;16272;48.188;9.964;2024-01-30T13:17:59;11.80;;;5.23;;
29246;SDS011;16272;48.188;9.964;2024-01-30T13:20:25;11.13;;;5.30;;
29246;SDS011;16272;48.188;9.964;2024-01-30T13:22:50;12.57;;;5.77;;
29246;SDS011;16272;48.188;9.964;2024-01-30T13:25:15;11.60;;;5.20;;
29246;SDS011;16272;48.188;9.964;2024-01-30T13:27:41;13.73;;;5.43;;
29246;SDS011;16272;48.188;9.964;2024-01-30T13:30:06;12.70;;;4.87;;
29246;SDS011;16272;48.188;9.964;2024-01-30T13:32:34;12.45;;;5.30;;
29246;SDS011;16272;48.188;9.964;2024-01-30T13:34:59;13.63;;;5.40;;
29246;SDS011;16272;48.188;9.964;2024-01-30T13:37:24;12.57;;;5.27;;
29246;SDS011;16272;48.188;9.964;2024-01-30T13:39:50;11.83;;;5.30;;
29246;SDS011;16272;48.188;9.964;2024-01-30T13:42:15;11.80;;;5.33;;
29246;SDS011;16272;48.188;9.964;2024-01-30T13:44:40;11.23;;;4.80;;
29246;SDS011;16272;48.188;9.964;2024-01-30T13:47:08;11.60;;;4.82;;
29246;SDS011;16272;48.188;9.964;2024-01-30T13:49:33;10.70;;;4.93;;
29246;SDS011;16272;48.188;9.964;2024-01-30T13:51:58;10.57;;;4.50;;
29246;SDS011;16272;48.188;9.964;2024-01-30T13:54:24;11.80;;;5.10;;
29246;SDS011;16272;48.188;9.964;2024-01-30T13:56:49;11.37;;;5.23;;
29246;SDS011;16272;48.188;9.964;2024-01-30T13:59:14;11.03;;;5.27;;
29246;SDS011;16272;48.188;9.964;2024-01-30T14:01:40;11.27;;;5.10;;
29246;SDS011;16272;48.188;9.964;2024-01-30T14:04:05;10.52;;;4.65;;
29246;SDS011;16272;48.188;9.964;2024-01-30T14:06:30;11.20;;;4.60;;
29246;SDS011;16272;48.188;9.964;2024-01-30T14:08:56;10.10;;;4.90;;
29246;SDS011;16272;48.188;9.964;2024-01-30T14:11:21;12.57;;;5.13;;
29246;SDS011;16272;48.188;9.964;2024-01-30T14:13:46;10.57;;;5.30;;
29246;SDS011;16272;48.188;9.964;2024-01-30T14:16:12;11.60;;;5.40;;
29246;SDS011;16272;48.188;9.964;2024-01-30T14:18:37;11.90;;;5.63;;
29246;SDS011;16272;48.188;9.964;2024-01-30T14:21:02;11.93;;;4.72;;
29246;SDS011;16272;48.188;9.964;2024-01-30T14:23:28;10.93;;;4.93;;
29246;SDS011;16272;48.188;9.964;2024-01-30T14:25:53;10.60;;;4.27;;
29246;SDS011;16272;48.188;9.964;2024-01-30T14:28:18;11.07;;;4.83;;
29246;SDS011;16272;48.188;9.964;2024-01-30T14:30:44;11.47;;;4.70;;